sensor_id;sensor_type;location;lat;lon;timestamp;temperature;humidity
43963;DHT22;29622;45.534;9.242;2023-06-26T00:00:08;28.10;38.30
43963;DHT22;29622;45.534;9.242;2023-06-26T00:05:09;28.10;38.50
43963;DHT22;29622;45.534;9.242;2023-06-26T00:10:10;28.10;38.60
43963;DHT22;29622;45.534;9.242;2023-06-26T00:15:10;28.10;38.70
43963;DHT22;29622;45.534;9.242;2023-06-26T00:20:11;28.10;38.80
43963;DHT22;29622;45.534;9.242;2023-06-26T00:25:14;28.00;38.80
43963;DHT22;29622;45.534;9.242;2023-06-26T00:30:15;28.00;38.90
43963;DHT22;29622;45.534;9.242;2023-06-26T00:35:15;28.10;39.00
43963;DHT22;29622;45.534;9.242;2023-06-26T00:40:18;28.00;39.00
43963;DHT22;29622;45.534;9.242;2023-06-26T00:45:19;28.00;39.20
43963;DHT22;29622;45.534;9.242;2023-06-26T00:50:20;27.90;39.30
43963;DHT22;29622;45.534;9.242;2023-06-26T00:55:20;27.90;39.40
43963;DHT22;29622;45.534;9.242;2023-06-26T01:00:21;27.80;39.50
43963;DHT22;29622;45.534;9.242;2023-06-26T01:05:22;27.70;39.50
43963;DHT22;29622;45.534;9.242;2023-06-26T01:10:24;27.70;39.70
43963;DHT22;29622;45.534;9.242;2023-06-26T01:15:24;27.60;39.80
43963;DHT22;29622;45.534;9.242;2023-06-26T01:20:26;27.60;40.00
43963;DHT22;29622;45.534;9.242;2023-06-26T01:31:07;27.90;40.00
43963;DHT22;29622;45.534;9.242;2023-06-26T01:36:08;27.90;40.20
43963;DHT22;29622;45.534;9.242;2023-06-26T01:41:10;27.70;39.70
43963;DHT22;29622;45.534;9.242;2023-06-26T01:46:39;27.60;39.90
43963;DHT22;29622;45.534;9.242;2023-06-26T01:51:44;27.50;40.30
43963;DHT22;29622;45.534;9.242;2023-06-26T01:56:49;27.40;40.20
43963;DHT22;29622;45.534;9.242;2023-06-26T02:01:50;27.30;40.40
43963;DHT22;29622;45.534;9.242;2023-06-26T02:06:52;27.30;40.50
43963;DHT22;29622;45.534;9.242;2023-06-26T02:11:53;27.20;40.50
43963;DHT22;29622;45.534;9.242;2023-06-26T02:16:54;27.20;40.60
43963;DHT22;29622;45.534;9.242;2023-06-26T02:21:54;27.20;40.80
43963;DHT22;29622;45.534;9.242;2023-06-26T02:26:57;27.10;40.80
43963;DHT22;29622;45.534;9.242;2023-06-26T02:31:58;27.10;40.80
43963;DHT22;29622;45.534;9.242;2023-06-26T02:36:59;27.10;40.90
43963;DHT22;29622;45.534;9.242;2023-06-26T02:42:00;27.00;41.00
43963;DHT22;29622;45.534;9.242;2023-06-26T02:47:01;26.90;41.10
43963;DHT22;29622;45.534;9.242;2023-06-26T02:52:02;26.90;41.20
43963;DHT22;29622;45.534;9.242;2023-06-26T02:57:04;26.80;41.20
43963;DHT22;29622;45.534;9.242;2023-06-26T03:02:06;26.80;41.30
43963;DHT22;29622;45.534;9.242;2023-06-26T03:07:12;26.70;41.40
43963;DHT22;29622;45.534;9.242;2023-06-26T03:12:15;26.70;41.60
43963;DHT22;29622;45.534;9.242;2023-06-26T03:17:17;26.60;41.70
43963;DHT22;29622;45.534;9.242;2023-06-26T03:22:21;26.50;41.80
43963;DHT22;29622;45.534;9.242;2023-06-26T03:27:21;26.50;41.90
43963;DHT22;29622;45.534;9.242;2023-06-26T03:32:24;26.40;42.00
43963;DHT22;29622;45.534;9.242;2023-06-26T03:37:25;26.40;42.10
43963;DHT22;29622;45.534;9.242;2023-06-26T03:42:25;26.30;42.10
43963;DHT22;29622;45.534;9.242;2023-06-26T03:47:26;26.30;42.30
43963;DHT22;29622;45.534;9.242;2023-06-26T03:52:27;26.30;42.30
43963;DHT22;29622;45.534;9.242;2023-06-26T03:57:28;26.30;42.30
43963;DHT22;29622;45.534;9.242;2023-06-26T04:02:28;26.30;42.40
43963;DHT22;29622;45.534;9.242;2023-06-26T04:07:29;26.30;42.40
43963;DHT22;29622;45.534;9.242;2023-06-26T04:12:29;26.20;42.40
43963;DHT22;29622;45.534;9.242;2023-06-26T04:17:30;26.20;42.50
43963;DHT22;29622;45.534;9.242;2023-06-26T04:22:31;26.30;42.50
43963;DHT22;29622;45.534;9.242;2023-06-26T04:27:31;26.30;42.50
43963;DHT22;29622;45.534;9.242;2023-06-26T04:32:32;26.30;42.60
43963;DHT22;29622;45.534;9.242;2023-06-26T04:37:33;26.30;42.60
43963;DHT22;29622;45.534;9.242;2023-06-26T04:42:33;26.30;42.70
43963;DHT22;29622;45.534;9.242;2023-06-26T04:47:34;26.40;42.70
43963;DHT22;29622;45.534;9.242;2023-06-26T04:52:35;26.50;42.70
43963;DHT22;29622;45.534;9.242;2023-06-26T04:57:35;26.60;42.70
43963;DHT22;29622;45.534;9.242;2023-06-26T05:02:43;26.60;42.70
43963;DHT22;29622;45.534;9.242;2023-06-26T05:07:43;26.60;42.80
43963;DHT22;29622;45.534;9.242;2023-06-26T05:12:44;26.70;42.70
43963;DHT22;29622;45.534;9.242;2023-06-26T05:17:45;26.80;42.70
43963;DHT22;29622;45.534;9.242;2023-06-26T05:22:45;26.80;42.60
43963;DHT22;29622;45.534;9.242;2023-06-26T05:27:47;26.80;42.50
43963;DHT22;29622;45.534;9.242;2023-06-26T05:32:49;26.90;42.60
43963;DHT22;29622;45.534;9.242;2023-06-26T05:37:50;26.90;42.50
43963;DHT22;29622;45.534;9.242;2023-06-26T05:42:52;27.10;42.60
43963;DHT22;29622;45.534;9.242;2023-06-26T05:47:52;27.30;42.50
43963;DHT22;29622;45.534;9.242;2023-06-26T05:52:53;27.50;42.30
43963;DHT22;29622;45.534;9.242;2023-06-26T05:57:57;27.60;42.30
43963;DHT22;29622;45.534;9.242;2023-06-26T06:02:58;27.80;42.20
43963;DHT22;29622;45.534;9.242;2023-06-26T06:07:58;28.00;41.80
43963;DHT22;29622;45.534;9.242;2023-06-26T06:12:59;28.20;41.60
43963;DHT22;29622;45.534;9.242;2023-06-26T06:18:00;28.40;41.60
43963;DHT22;29622;45.534;9.242;2023-06-26T06:23:00;28.60;41.30
43963;DHT22;29622;45.534;9.242;2023-06-26T06:28:01;28.60;41.20
43963;DHT22;29622;45.534;9.242;2023-06-26T06:33:01;28.70;41.10
43963;DHT22;29622;45.534;9.242;2023-06-26T06:38:02;28.80;40.90
43963;DHT22;29622;45.534;9.242;2023-06-26T06:43:03;28.90;40.70
43963;DHT22;29622;45.534;9.242;2023-06-26T06:48:04;29.10;40.40
43963;DHT22;29622;45.534;9.242;2023-06-26T06:53:05;29.20;40.10
43963;DHT22;29622;45.534;9.242;2023-06-26T06:58:06;29.40;39.80
43963;DHT22;29622;45.534;9.242;2023-06-26T07:03:06;29.60;39.50
43963;DHT22;29622;45.534;9.242;2023-06-26T07:08:07;29.70;39.20
43963;DHT22;29622;45.534;9.242;2023-06-26T07:13:08;29.80;39.00
43963;DHT22;29622;45.534;9.242;2023-06-26T07:18:08;30.00;39.00
43963;DHT22;29622;45.534;9.242;2023-06-26T07:23:09;30.20;39.00
43963;DHT22;29622;45.534;9.242;2023-06-26T07:28:11;30.20;38.70
43963;DHT22;29622;45.534;9.242;2023-06-26T07:33:12;30.40;38.70
43963;DHT22;29622;45.534;9.242;2023-06-26T07:38:12;30.50;38.40
43963;DHT22;29622;45.534;9.242;2023-06-26T07:43:13;30.50;38.20
43963;DHT22;29622;45.534;9.242;2023-06-26T07:48:14;30.50;38.10
43963;DHT22;29622;45.534;9.242;2023-06-26T07:53:14;30.50;38.20
43963;DHT22;29622;45.534;9.242;2023-06-26T07:58:15;30.50;38.30
43963;DHT22;29622;45.534;9.242;2023-06-26T08:03:15;30.70;38.40
43963;DHT22;29622;45.534;9.242;2023-06-26T08:08:16;30.80;38.30
43963;DHT22;29622;45.534;9.242;2023-06-26T08:13:17;30.80;38.00
43963;DHT22;29622;45.534;9.242;2023-06-26T08:18:18;30.90;37.60
43963;DHT22;29622;45.534;9.242;2023-06-26T08:23:18;31.00;37.40
43963;DHT22;29622;45.534;9.242;2023-06-26T08:28:19;30.90;37.20
43963;DHT22;29622;45.534;9.242;2023-06-26T08:33:20;30.90;37.20
43963;DHT22;29622;45.534;9.242;2023-06-26T08:38:20;30.90;37.40
43963;DHT22;29622;45.534;9.242;2023-06-26T08:43:21;31.00;37.20
43963;DHT22;29622;45.534;9.242;2023-06-26T08:48:23;31.00;37.10
43963;DHT22;29622;45.534;9.242;2023-06-26T08:58:48;31.20;37.10
43963;DHT22;29622;45.534;9.242;2023-06-26T09:03:48;31.30;37.10
43963;DHT22;29622;45.534;9.242;2023-06-26T09:08:49;31.30;37.20
43963;DHT22;29622;45.534;9.242;2023-06-26T09:13:50;31.40;37.50
43963;DHT22;29622;45.534;9.242;2023-06-26T09:18:55;31.50;37.50
43963;DHT22;29622;45.534;9.242;2023-06-26T09:23:58;31.70;37.40
43963;DHT22;29622;45.534;9.242;2023-06-26T09:28:59;31.70;37.20
43963;DHT22;29622;45.534;9.242;2023-06-26T09:34:00;31.70;37.10
43963;DHT22;29622;45.534;9.242;2023-06-26T09:39:01;31.70;37.10
43963;DHT22;29622;45.534;9.242;2023-06-26T09:44:04;31.80;37.00
43963;DHT22;29622;45.534;9.242;2023-06-26T09:49:06;31.90;36.70
43963;DHT22;29622;45.534;9.242;2023-06-26T09:54:08;31.90;36.60
43963;DHT22;29622;45.534;9.242;2023-06-26T09:59:08;31.90;36.60
43963;DHT22;29622;45.534;9.242;2023-06-26T10:04:10;31.90;36.40
43963;DHT22;29622;45.534;9.242;2023-06-26T10:09:10;31.90;36.50
43963;DHT22;29622;45.534;9.242;2023-06-26T10:14:12;32.00;36.60
43963;DHT22;29622;45.534;9.242;2023-06-26T10:19:16;32.00;36.50
43963;DHT22;29622;45.534;9.242;2023-06-26T10:24:17;32.10;36.50
43963;DHT22;29622;45.534;9.242;2023-06-26T10:29:20;32.20;36.40
43963;DHT22;29622;45.534;9.242;2023-06-26T10:34:22;32.20;36.30
43963;DHT22;29622;45.534;9.242;2023-06-26T10:39:23;32.20;36.10
43963;DHT22;29622;45.534;9.242;2023-06-26T10:44:28;32.20;35.90
43963;DHT22;29622;45.534;9.242;2023-06-26T10:49:47;32.30;35.80
43963;DHT22;29622;45.534;9.242;2023-06-26T10:54:47;32.40;35.60
43963;DHT22;29622;45.534;9.242;2023-06-26T10:59:48;32.40;35.60
43963;DHT22;29622;45.534;9.242;2023-06-26T11:04:50;32.40;35.60
43963;DHT22;29622;45.534;9.242;2023-06-26T11:10:08;32.50;36.00
43963;DHT22;29622;45.534;9.242;2023-06-26T11:15:15;32.60;36.00
43963;DHT22;29622;45.534;9.242;2023-06-26T11:20:16;32.60;35.90
43963;DHT22;29622;45.534;9.242;2023-06-26T11:25:19;32.50;35.80
43963;DHT22;29622;45.534;9.242;2023-06-26T11:30:25;32.60;35.90
43963;DHT22;29622;45.534;9.242;2023-06-26T11:35:25;32.70;35.80
43963;DHT22;29622;45.534;9.242;2023-06-26T11:40:36;32.70;35.90
43963;DHT22;29622;45.534;9.242;2023-06-26T11:45:37;32.70;35.80
43963;DHT22;29622;45.534;9.242;2023-06-26T11:50:38;32.80;35.90
43963;DHT22;29622;45.534;9.242;2023-06-26T11:55:42;32.90;35.90
43963;DHT22;29622;45.534;9.242;2023-06-26T12:00:43;32.90;35.70
43963;DHT22;29622;45.534;9.242;2023-06-26T12:05:44;32.90;35.70
43963;DHT22;29622;45.534;9.242;2023-06-26T12:10:45;33.00;35.60
43963;DHT22;29622;45.534;9.242;2023-06-26T12:15:46;33.10;35.50
43963;DHT22;29622;45.534;9.242;2023-06-26T12:20:46;33.20;35.50
43963;DHT22;29622;45.534;9.242;2023-06-26T12:25:47;33.30;35.70
43963;DHT22;29622;45.534;9.242;2023-06-26T12:31:15;33.30;35.70
43963;DHT22;29622;45.534;9.242;2023-06-26T12:36:16;33.40;35.60
43963;DHT22;29622;45.534;9.242;2023-06-26T12:41:17;33.40;35.50
43963;DHT22;29622;45.534;9.242;2023-06-26T12:46:18;33.40;35.40
43963;DHT22;29622;45.534;9.242;2023-06-26T12:51:19;33.50;35.40
43963;DHT22;29622;45.534;9.242;2023-06-26T12:56:19;33.60;35.40
43963;DHT22;29622;45.534;9.242;2023-06-26T13:01:20;33.70;35.20
43963;DHT22;29622;45.534;9.242;2023-06-26T13:06:21;33.80;35.00
43963;DHT22;29622;45.534;9.242;2023-06-26T13:11:21;33.80;34.50
43963;DHT22;29622;45.534;9.242;2023-06-26T13:16:23;33.90;34.30
43963;DHT22;29622;45.534;9.242;2023-06-26T13:21:23;34.10;34.30
43963;DHT22;29622;45.534;9.242;2023-06-26T13:26:24;34.10;34.40
43963;DHT22;29622;45.534;9.242;2023-06-26T13:31:26;34.20;34.40
43963;DHT22;29622;45.534;9.242;2023-06-26T13:36:27;34.20;34.50
43963;DHT22;29622;45.534;9.242;2023-06-26T13:41:28;34.30;34.30
43963;DHT22;29622;45.534;9.242;2023-06-26T13:46:29;34.30;34.20
43963;DHT22;29622;45.534;9.242;2023-06-26T13:51:29;34.40;34.30
43963;DHT22;29622;45.534;9.242;2023-06-26T13:56:30;34.40;34.40
43963;DHT22;29622;45.534;9.242;2023-06-26T14:01:31;34.50;34.10
43963;DHT22;29622;45.534;9.242;2023-06-26T14:06:32;34.60;33.80
43963;DHT22;29622;45.534;9.242;2023-06-26T14:11:33;34.80;33.80
43963;DHT22;29622;45.534;9.242;2023-06-26T14:16:34;34.90;33.80
43963;DHT22;29622;45.534;9.242;2023-06-26T14:21:34;35.00;33.90
43963;DHT22;29622;45.534;9.242;2023-06-26T14:26:35;34.90;34.30
43963;DHT22;29622;45.534;9.242;2023-06-26T14:31:37;34.90;34.30
43963;DHT22;29622;45.534;9.242;2023-06-26T14:36:37;34.90;34.30
43963;DHT22;29622;45.534;9.242;2023-06-26T14:41:38;34.90;34.60
43963;DHT22;29622;45.534;9.242;2023-06-26T14:46:39;34.90;34.50
43963;DHT22;29622;45.534;9.242;2023-06-26T14:51:39;35.00;34.20
43963;DHT22;29622;45.534;9.242;2023-06-26T14:56:40;35.10;33.90
43963;DHT22;29622;45.534;9.242;2023-06-26T15:01:43;35.40;33.60
43963;DHT22;29622;45.534;9.242;2023-06-26T15:06:44;35.60;33.50
43963;DHT22;29622;45.534;9.242;2023-06-26T15:11:45;35.70;33.50
43963;DHT22;29622;45.534;9.242;2023-06-26T15:16:45;35.80;33.70
43963;DHT22;29622;45.534;9.242;2023-06-26T15:21:46;35.90;33.50
43963;DHT22;29622;45.534;9.242;2023-06-26T15:26:47;36.10;33.50
43963;DHT22;29622;45.534;9.242;2023-06-26T15:31:47;36.20;33.40
43963;DHT22;29622;45.534;9.242;2023-06-26T15:36:48;36.40;33.40
43963;DHT22;29622;45.534;9.242;2023-06-26T15:41:49;36.60;33.10
43963;DHT22;29622;45.534;9.242;2023-06-26T15:46:50;36.70;32.50
43963;DHT22;29622;45.534;9.242;2023-06-26T15:51:50;36.80;32.10
43963;DHT22;29622;45.534;9.242;2023-06-26T15:56:51;37.00;32.10
43963;DHT22;29622;45.534;9.242;2023-06-26T16:01:52;37.10;32.10
43963;DHT22;29622;45.534;9.242;2023-06-26T16:06:52;37.10;31.60
43963;DHT22;29622;45.534;9.242;2023-06-26T16:11:53;37.20;31.40
43963;DHT22;29622;45.534;9.242;2023-06-26T16:16:54;37.10;31.50
43963;DHT22;29622;45.534;9.242;2023-06-26T16:21:54;36.90;31.90
43963;DHT22;29622;45.534;9.242;2023-06-26T16:26:55;36.80;31.80
43963;DHT22;29622;45.534;9.242;2023-06-26T16:31:56;36.80;31.80
43963;DHT22;29622;45.534;9.242;2023-06-26T16:36:56;36.60;31.90
43963;DHT22;29622;45.534;9.242;2023-06-26T16:41:57;36.50;31.90
43963;DHT22;29622;45.534;9.242;2023-06-26T16:46:58;36.40;32.10
43963;DHT22;29622;45.534;9.242;2023-06-26T16:51:59;36.20;32.30
43963;DHT22;29622;45.534;9.242;2023-06-26T16:57:01;36.20;32.70
43963;DHT22;29622;45.534;9.242;2023-06-26T17:02:01;36.10;33.00
43963;DHT22;29622;45.534;9.242;2023-06-26T17:07:02;36.00;33.10
43963;DHT22;29622;45.534;9.242;2023-06-26T17:12:03;36.00;33.20
43963;DHT22;29622;45.534;9.242;2023-06-26T17:17:04;35.90;33.70
43963;DHT22;29622;45.534;9.242;2023-06-26T17:22:05;35.90;33.80
43963;DHT22;29622;45.534;9.242;2023-06-26T17:27:13;35.90;33.50
43963;DHT22;29622;45.534;9.242;2023-06-26T17:32:15;35.80;33.20
43963;DHT22;29622;45.534;9.242;2023-06-26T17:37:16;35.90;33.10
43963;DHT22;29622;45.534;9.242;2023-06-26T17:42:17;35.90;33.20
43963;DHT22;29622;45.534;9.242;2023-06-26T17:47:18;35.90;33.00
43963;DHT22;29622;45.534;9.242;2023-06-26T17:52:19;35.90;32.80
43963;DHT22;29622;45.534;9.242;2023-06-26T17:57:19;36.00;33.00
43963;DHT22;29622;45.534;9.242;2023-06-26T18:02:20;35.90;33.60
43963;DHT22;29622;45.534;9.242;2023-06-26T18:07:20;35.80;33.40
43963;DHT22;29622;45.534;9.242;2023-06-26T18:12:22;35.70;33.20
43963;DHT22;29622;45.534;9.242;2023-06-26T18:17:22;35.70;33.80
43963;DHT22;29622;45.534;9.242;2023-06-26T18:22:23;35.70;34.00
43963;DHT22;29622;45.534;9.242;2023-06-26T18:27:23;35.70;33.60
43963;DHT22;29622;45.534;9.242;2023-06-26T18:32:24;35.70;33.80
43963;DHT22;29622;45.534;9.242;2023-06-26T18:37:25;35.60;33.90
43963;DHT22;29622;45.534;9.242;2023-06-26T18:42:25;35.50;34.00
43963;DHT22;29622;45.534;9.242;2023-06-26T18:47:26;35.40;34.10
43963;DHT22;29622;45.534;9.242;2023-06-26T18:52:26;35.40;34.30
43963;DHT22;29622;45.534;9.242;2023-06-26T18:57:28;35.30;34.50
43963;DHT22;29622;45.534;9.242;2023-06-26T19:02:29;35.30;34.70
43963;DHT22;29622;45.534;9.242;2023-06-26T19:07:29;35.20;34.70
43963;DHT22;29622;45.534;9.242;2023-06-26T19:12:30;35.20;34.40
43963;DHT22;29622;45.534;9.242;2023-06-26T19:17:31;35.00;34.50
43963;DHT22;29622;45.534;9.242;2023-06-26T19:22:31;35.00;34.80
43963;DHT22;29622;45.534;9.242;2023-06-26T19:27:32;34.90;34.50
43963;DHT22;29622;45.534;9.242;2023-06-26T19:32:32;34.70;34.20
43963;DHT22;29622;45.534;9.242;2023-06-26T19:37:33;34.50;34.30
43963;DHT22;29622;45.534;9.242;2023-06-26T19:42:34;34.40;34.20
43963;DHT22;29622;45.534;9.242;2023-06-26T19:47:35;34.20;34.20
43963;DHT22;29622;45.534;9.242;2023-06-26T19:52:38;34.10;34.40
43963;DHT22;29622;45.534;9.242;2023-06-26T19:57:41;34.00;34.30
43963;DHT22;29622;45.534;9.242;2023-06-26T20:02:41;33.80;34.40
43963;DHT22;29622;45.534;9.242;2023-06-26T20:07:42;33.60;34.50
43963;DHT22;29622;45.534;9.242;2023-06-26T20:12:43;33.50;35.10
43963;DHT22;29622;45.534;9.242;2023-06-26T20:17:44;33.40;34.50
43963;DHT22;29622;45.534;9.242;2023-06-26T20:22:45;33.20;34.50
43963;DHT22;29622;45.534;9.242;2023-06-26T20:27:46;33.00;34.60
43963;DHT22;29622;45.534;9.242;2023-06-26T20:32:46;32.70;34.70
43963;DHT22;29622;45.534;9.242;2023-06-26T20:37:47;32.60;34.80
43963;DHT22;29622;45.534;9.242;2023-06-26T20:42:48;32.50;35.00
43963;DHT22;29622;45.534;9.242;2023-06-26T20:47:49;32.40;35.20
43963;DHT22;29622;45.534;9.242;2023-06-26T20:52:50;32.40;35.40
43963;DHT22;29622;45.534;9.242;2023-06-26T20:57:51;32.50;35.30
43963;DHT22;29622;45.534;9.242;2023-06-26T21:02:51;32.50;35.30
43963;DHT22;29622;45.534;9.242;2023-06-26T21:07:52;32.30;35.20
43963;DHT22;29622;45.534;9.242;2023-06-26T21:12:52;32.20;35.40
43963;DHT22;29622;45.534;9.242;2023-06-26T21:17:53;32.00;35.50
43963;DHT22;29622;45.534;9.242;2023-06-26T21:22:54;31.90;35.70
43963;DHT22;29622;45.534;9.242;2023-06-26T21:27:54;31.80;35.90
43963;DHT22;29622;45.534;9.242;2023-06-26T21:32:55;31.70;36.10
43963;DHT22;29622;45.534;9.242;2023-06-26T21:37:55;31.60;36.40
43963;DHT22;29622;45.534;9.242;2023-06-26T21:42:56;31.70;36.50
43963;DHT22;29622;45.534;9.242;2023-06-26T21:47:57;31.60;36.50
43963;DHT22;29622;45.534;9.242;2023-06-26T21:52:58;31.60;36.70
43963;DHT22;29622;45.534;9.242;2023-06-26T21:57:58;31.60;36.90
43963;DHT22;29622;45.534;9.242;2023-06-26T22:02:59;31.60;36.90
43963;DHT22;29622;45.534;9.242;2023-06-26T22:07:59;31.60;36.80
43963;DHT22;29622;45.534;9.242;2023-06-26T22:13:00;31.60;36.90
43963;DHT22;29622;45.534;9.242;2023-06-26T22:18:01;31.40;37.00
43963;DHT22;29622;45.534;9.242;2023-06-26T22:23:02;31.40;37.20
43963;DHT22;29622;45.534;9.242;2023-06-26T22:28:03;31.30;37.40
43963;DHT22;29622;45.534;9.242;2023-06-26T22:33:03;31.30;37.50
43963;DHT22;29622;45.534;9.242;2023-06-26T22:38:04;31.20;37.50
43963;DHT22;29622;45.534;9.242;2023-06-26T22:43:05;31.10;37.60
43963;DHT22;29622;45.534;9.242;2023-06-26T22:48:07;31.00;37.80
43963;DHT22;29622;45.534;9.242;2023-06-26T22:53:08;31.00;38.00
43963;DHT22;29622;45.534;9.242;2023-06-26T22:58:08;31.00;38.00
43963;DHT22;29622;45.534;9.242;2023-06-26T23:03:09;30.90;38.10
43963;DHT22;29622;45.534;9.242;2023-06-26T23:08:12;30.90;38.70
43963;DHT22;29622;45.534;9.242;2023-06-26T23:13:14;30.90;38.30
43963;DHT22;29622;45.534;9.242;2023-06-26T23:18:15;30.80;38.40
43963;DHT22;29622;45.534;9.242;2023-06-26T23:23:15;30.90;38.70
43963;DHT22;29622;45.534;9.242;2023-06-26T23:28:16;31.20;38.80
43963;DHT22;29622;45.534;9.242;2023-06-26T23:33:17;31.20;38.40
43963;DHT22;29622;45.534;9.242;2023-06-26T23:38:18;31.00;38.50
43963;DHT22;29622;45.534;9.242;2023-06-26T23:43:18;30.90;38.70
43963;DHT22;29622;45.534;9.242;2023-06-26T23:48:19;30.70;39.00
43963;DHT22;29622;45.534;9.242;2023-06-26T23:53:20;30.60;39.20
43963;DHT22;29622;45.534;9.242;2023-06-26T23:58:20;30.50;39.30
